Time;durP1;ratioP1;P1;durP2;ratioP2;P2;SDS_P1;SDS_P2;PMS_P1;PMS_P2;Temp;Humidity;BMP_temperature;BMP_pressure;BME280_temperature;BME280_humidity;BME280_pressure;Samples;Min_cycle;Max_cycle;Signal;HPM_P1;HPM_P2
2023/07/03 00:01:07;;;;;;;;;;;;;;;15.29;48.35;100390.47;7357190;19;19931;-58
2023/07/03 00:03:32;;;;;;;;;;;;;;;15.50;48.28;100435.09;7359347;19;20280;-58
2023/07/03 00:05:57;;;;;;;;;;;;;;;15.42;48.41;100437.25;7358676;19;19936;-59
2023/07/03 00:08:23;;;;;;;;;;;;;;;15.36;48.51;100437.53;7356439;19;19974;-59
2023/07/03 00:10:48;;;;;;;;;;;;;;;15.31;48.77;100445.66;7359057;19;19934;-59
2023/07/03 00:13:13;;;;;;;;;;;;;;;15.24;48.63;100441.59;7357753;19;19934;-58
2023/07/03 00:15:38;;;;;;;;;;;;;;;15.18;48.96;100439.25;7358925;19;20356;-58
2023/07/03 00:18:04;;;;;;;;;;;;;;;15.12;49.19;100435.13;7358424;19;19934;-58
2023/07/03 00:20:29;;;;;;;;;;;;;;;15.06;49.09;100430.16;7359170;19;19926;-58
2023/07/03 00:22:55;;;;;;;;;;;;;;;15.00;49.21;100440.91;7358243;19;20027;-56
2023/07/03 00:25:21;;;;;;;;;;;;;;;14.94;49.57;100430.69;7357913;19;19936;-58
2023/07/03 00:27:47;;;;;;;;;;;;;;;14.90;49.25;100429.09;7355529;19;19939;-58
2023/07/03 00:30:12;;;;;;;;;;;;;;;14.86;49.32;100432.81;7356941;19;19929;-58
2023/07/03 00:32:38;;;;;;;;;;;;;;;14.81;49.57;100434.81;7357437;19;20472;-58
2023/07/03 00:35:03;;;;;;;;;;;;;;;14.77;49.56;100429.66;7358000;19;19922;-58
2023/07/03 00:37:29;;;;;;;;;;;;;;;14.72;49.97;100428.16;7356797;19;19968;-58
2023/07/03 00:39:54;;;;;;;;;;;;;;;14.67;49.55;100420.47;7356917;19;19923;-59
2023/07/03 00:42:22;;;;;;;;;;;;;;;14.63;50.01;100425.94;7358260;19;19931;-58
2023/07/03 00:44:47;;;;;;;;;;;;;;;14.59;50.17;100419.94;7356023;19;19998;-59
2023/07/03 00:47:12;;;;;;;;;;;;;;;14.56;50.18;100414.00;7358552;19;20083;-59
2023/07/03 00:49:38;;;;;;;;;;;;;;;14.52;50.23;100408.88;7355409;19;19925;-57
2023/07/03 00:52:04;;;;;;;;;;;;;;;14.49;50.19;100413.38;7357976;19;19939;-58
2023/07/03 00:54:30;;;;;;;;;;;;;;;14.45;50.45;100412.66;7356558;19;20248;-58
2023/07/03 00:56:55;;;;;;;;;;;;;;;14.42;50.79;100422.44;7357220;19;19921;-57
2023/07/03 00:59:21;;;;;;;;;;;;;;;14.06;50.52;100359.22;7355999;19;20336;-59
2023/07/03 01:01:52;;;;;;;;;;;;;;;14.38;50.65;100420.84;7357250;19;19923;-59
2023/07/03 01:04:26;;;;;;;;;;;;;;;14.33;50.71;100412.31;7356008;19;19930;-58
2023/07/03 01:06:57;;;;;;;;;;;;;;;14.30;51.02;100412.47;7354587;19;19934;-58
2023/07/03 01:09:24;;;;;;;;;;;;;;;14.25;51.11;100410.03;7356990;19;19922;-59
2023/07/03 01:11:49;;;;;;;;;;;;;;;14.23;51.58;100404.81;7354839;19;19922;-57
2023/07/03 01:14:17;;;;;;;;;;;;;;;14.19;51.24;100405.00;7355803;19;20548;-58
2023/07/03 01:16:43;;;;;;;;;;;;;;;14.15;51.59;100399.06;7354509;19;19923;-58
2023/07/03 01:19:09;;;;;;;;;;;;;;;14.12;51.44;100404.44;7357928;19;20531;-58
2023/07/03 01:21:39;;;;;;;;;;;;;;;14.09;51.21;100403.69;7353289;19;19929;-58
2023/07/03 01:24:11;;;;;;;;;;;;;;;14.06;51.63;100403.84;7356171;19;19923;-59
2023/07/03 01:26:37;;;;;;;;;;;;;;;14.03;51.67;100404.81;7355214;19;19923;-58
2023/07/03 01:29:03;;;;;;;;;;;;;;;14.01;51.25;100401.41;7356859;19;19939;-58
2023/07/03 01:31:30;;;;;;;;;;;;;;;13.98;51.98;100391.03;7353324;19;20606;-59
2023/07/03 01:33:56;;;;;;;;;;;;;;;13.96;51.74;100390.25;7356127;19;20458;-58
2023/07/03 01:36:22;;;;;;;;;;;;;;;13.94;51.86;100376.34;7354970;19;19919;-58
2023/07/03 01:38:48;;;;;;;;;;;;;;;13.92;51.75;100376.38;7355834;19;19946;-58
2023/07/03 01:41:14;;;;;;;;;;;;;;;13.90;51.95;100380.84;7355546;19;19921;-58
2023/07/03 01:43:40;;;;;;;;;;;;;;;13.90;51.76;100382.63;7355193;19;19918;-58
2023/07/03 01:46:07;;;;;;;;;;;;;;;13.88;51.89;100384.44;7357635;19;19926;-59
2023/07/03 01:48:32;;;;;;;;;;;;;;;13.86;52.06;100383.66;7355218;19;20650;-58
2023/07/03 01:50:58;;;;;;;;;;;;;;;13.84;52.06;100369.72;7354849;19;19930;-58
2023/07/03 01:53:26;;;;;;;;;;;;;;;13.83;52.12;100374.13;7356193;19;20467;-59
2023/07/03 01:55:54;;;;;;;;;;;;;;;13.82;52.46;100369.81;7354017;19;19923;-58
2023/07/03 01:58:29;;;;;;;;;;;;;;;13.82;52.23;100379.47;7351660;19;19922;-58
2023/07/03 02:00:57;;;;;;;;;;;;;;;13.80;52.39;100379.53;7354485;19;19925;-58
2023/07/03 02:03:25;;;;;;;;;;;;;;;13.80;52.68;100376.91;7355900;19;19937;-58
2023/07/03 02:05:51;;;;;;;;;;;;;;;13.79;52.48;100379.56;7353409;19;19990;-58
2023/07/03 02:08:17;;;;;;;;;;;;;;;13.77;52.54;100383.13;7354427;19;19926;-58
2023/07/03 02:10:42;;;;;;;;;;;;;;;13.76;52.44;100365.66;7351367;19;20400;-58
2023/07/03 02:13:08;;;;;;;;;;;;;;;13.77;52.44;100369.16;7355373;19;21253;-58
2023/07/03 02:15:34;;;;;;;;;;;;;;;13.75;52.50;100366.59;7353285;19;19938;-58
2023/07/03 02:17:59;;;;;;;;;;;;;;;13.75;52.30;100357.88;7350518;19;20642;-58
2023/07/03 02:20:24;;;;;;;;;;;;;;;13.75;52.20;100363.13;7352057;19;20344;-58
2023/07/03 02:22:50;;;;;;;;;;;;;;;13.72;52.24;100357.97;7351910;19;19927;-59
2023/07/03 02:25:16;;;;;;;;;;;;;;;13.73;52.59;100365.78;7353254;19;20522;-58
2023/07/03 02:27:44;;;;;;;;;;;;;;;13.71;52.61;100362.38;7353976;19;19929;-57
2023/07/03 02:30:10;;;;;;;;;;;;;;;13.71;52.90;100362.38;7353121;19;19918;-58
2023/07/03 02:32:37;;;;;;;;;;;;;;;13.71;52.92;100362.38;7360068;19;25631;-58
2023/07/03 02:35:03;;;;;;;;;;;;;;;13.69;53.26;100353.72;7359379;19;20360;-59
2023/07/03 02:37:28;;;;;;;;;;;;;;;13.68;52.99;100357.25;7360318;19;21303;-58
2023/07/03 02:39:53;;;;;;;;;;;;;;;13.69;53.29;100353.72;7359878;19;19919;-58
2023/07/03 02:42:19;;;;;;;;;;;;;;;13.66;53.35;100348.59;7354935;19;20267;-58
2023/07/03 02:44:44;;;;;;;;;;;;;;;13.65;53.41;100339.03;7357945;19;19955;-58
2023/07/03 02:47:09;;;;;;;;;;;;;;;13.63;53.67;100332.97;7359312;19;19915;-58
2023/07/03 02:49:34;;;;;;;;;;;;;;;13.63;53.42;100334.75;7359826;19;20281;-58
2023/07/03 02:52:00;;;;;;;;;;;;;;;13.63;53.83;100332.13;7360617;19;20542;-59
2023/07/03 02:54:25;;;;;;;;;;;;;;;13.63;53.89;100327.72;7359256;19;19930;-58
2023/07/03 02:56:50;;;;;;;;;;;;;;;13.64;53.77;100318.09;7360506;19;19915;-58
2023/07/03 02:59:15;;;;;;;;;;;;;;;13.63;53.77;100319.84;7360525;19;20660;-59
2023/07/03 03:01:41;;;;;;;;;;;;;;;13.66;53.52;100324.97;7358254;19;19930;-58
2023/07/03 03:04:06;;;;;;;;;;;;;;;13.66;53.67;100309.22;7361011;19;20295;-58
2023/07/03 03:06:33;;;;;;;;;;;;;;;13.68;54.08;100315.25;7360893;19;20004;-58
2023/07/03 03:08:58;;;;;;;;;;;;;;;13.69;53.98;100306.50;7361174;19;19950;-58
2023/07/03 03:11:23;;;;;;;;;;;;;;;13.71;53.89;100298.56;7356999;19;19918;-59
2023/07/03 03:13:48;;;;;;;;;;;;;;;13.73;53.99;100308.06;7359207;19;19923;-58
2023/07/03 03:16:14;;;;;;;;;;;;;;;13.75;53.57;100301.00;7345991;19;19915;-58
2023/07/03 03:18:39;;;;;;;;;;;;;;;13.76;53.71;100307.94;7360087;19;19922;-58
2023/07/03 03:21:04;;;;;;;;;;;;;;;13.79;53.68;100306.09;7359444;19;19914;-58
2023/07/03 03:23:29;;;;;;;;;;;;;;;13.79;53.64;100290.34;7357887;19;19930;-59
2023/07/03 03:25:55;;;;;;;;;;;;;;;13.79;53.97;100295.59;7359137;19;19911;-58
2023/07/03 03:28:20;;;;;;;;;;;;;;;13.80;53.56;100292.06;7358831;19;19947;-58
2023/07/03 03:30:45;;;;;;;;;;;;;;;13.81;53.90;100293.78;7359215;19;19925;-58
2023/07/03 03:33:10;;;;;;;;;;;;;;;13.81;53.61;100280.66;7359316;19;19922;-58
2023/07/03 03:35:36;;;;;;;;;;;;;;;13.82;53.86;100280.56;7355643;19;19926;-58
2023/07/03 03:38:01;;;;;;;;;;;;;;;13.83;53.78;100276.16;7360733;19;20351;-58
2023/07/03 03:40:26;;;;;;;;;;;;;;;13.85;53.88;100284.84;7360574;19;19931;-58
2023/07/03 03:42:51;;;;;;;;;;;;;;;13.85;54.01;100279.59;7357637;19;19914;-58
2023/07/03 03:45:17;;;;;;;;;;;;;;;13.84;53.87;100273.50;7358875;19;22411;-58
2023/07/03 03:47:42;;;;;;;;;;;;;;;13.85;54.11;100271.72;7355065;19;19948;-58
2023/07/03 03:50:08;;;;;;;;;;;;;;;13.85;54.20;100243.72;7357413;19;19915;-58
2023/07/03 03:52:33;;;;;;;;;;;;;;;13.85;53.92;100242.84;7359191;19;19943;-58
2023/07/03 03:54:59;;;;;;;;;;;;;;;13.87;54.43;100241.00;7358983;19;19936;-58
2023/07/03 03:57:24;;;;;;;;;;;;;;;13.87;54.40;100247.09;7358249;19;20335;-58
2023/07/03 03:59:49;;;;;;;;;;;;;;;13.87;54.53;100243.63;7359169;19;19918;-58
2023/07/03 04:02:15;;;;;;;;;;;;;;;13.89;54.62;100241.78;7357176;19;20685;-58
2023/07/03 04:04:40;;;;;;;;;;;;;;;13.89;54.48;100233.91;7358947;19;19930;-58
2023/07/03 04:07:06;;;;;;;;;;;;;;;13.90;54.64;100220.75;7357791;19;19935;-58
2023/07/03 04:09:31;;;;;;;;;;;;;;;13.92;54.38;100228.53;7357628;19;19925;-59
2023/07/03 04:11:56;;;;;;;;;;;;;;;13.93;54.58;100214.47;7358504;19;19919;-57
2023/07/03 04:14:21;;;;;;;;;;;;;;;13.93;54.28;100227.59;7353204;19;19923;-58
2023/07/03 04:16:47;;;;;;;;;;;;;;;13.94;54.17;100216.22;7362923;19;19944;-58
2023/07/03 04:19:14;;;;;;;;;;;;;;;13.95;54.25;100213.50;7358166;19;20539;-58
2023/07/03 04:21:40;;;;;;;;;;;;;;;13.96;54.57;100219.63;7357825;19;19939;-57
2023/07/03 04:24:05;;;;;;;;;;;;;;;13.96;54.18;100219.63;7357663;19;19935;-58
2023/07/03 04:26:31;;;;;;;;;;;;;;;13.96;54.65;100219.63;7359022;19;19959;-58
2023/07/03 04:28:58;;;;;;;;;;;;;;;13.96;54.55;100209.13;7358296;19;19942;-59
2023/07/03 04:31:23;;;;;;;;;;;;;;;13.95;54.43;100208.25;7357989;19;19934;-58
2023/07/03 04:33:48;;;;;;;;;;;;;;;13.96;54.58;100201.25;7357269;19;19932;-58
2023/07/03 04:36:17;;;;;;;;;;;;;;;13.96;54.94;100214.34;7356905;19;19935;-58
2023/07/03 04:38:42;;;;;;;;;;;;;;;13.95;54.64;100210.03;7356683;19;20340;-58
2023/07/03 04:41:08;;;;;;;;;;;;;;;13.95;55.15;100205.63;7357840;19;19931;-58
2023/07/03 04:43:33;;;;;;;;;;;;;;;13.95;55.11;100213.50;7356548;19;19926;-58
2023/07/03 04:46:03;;;;;;;;;;;;;;;13.95;55.23;100207.41;7358066;19;19934;-58
2023/07/03 04:48:28;;;;;;;;;;;;;;;13.91;55.44;100204.06;7356948;19;20010;-58
2023/07/03 04:50:53;;;;;;;;;;;;;;;13.88;55.45;100211.22;7357951;19;20025;-58
2023/07/03 04:53:20;;;;;;;;;;;;;;;13.84;55.66;100205.25;7356803;19;19918;-57
2023/07/03 04:55:46;;;;;;;;;;;;;;;13.81;55.60;100215.03;7357795;19;20719;-58
2023/07/03 04:58:11;;;;;;;;;;;;;;;13.74;55.54;100201.34;7356175;19;19919;-58
2023/07/03 05:00:37;;;;;;;;;;;;;;;13.69;55.70;100201.53;7357753;19;20022;-57
2023/07/03 05:03:03;;;;;;;;;;;;;;;13.66;56.55;100196.41;7356287;19;20207;-57
2023/07/03 05:05:29;;;;;;;;;;;;;;;13.63;56.30;100201.78;7357610;19;20454;-57
2023/07/03 05:07:54;;;;;;;;;;;;;;;13.61;56.44;100202.78;7356282;19;19919;-58
2023/07/03 05:10:21;;;;;;;;;;;;;;;13.59;56.11;100194.97;7356667;19;20359;-58
2023/07/03 05:12:46;;;;;;;;;;;;;;;13.58;56.94;100193.25;7357463;19;19925;-58
2023/07/03 05:15:13;;;;;;;;;;;;;;;13.58;56.23;100188.00;7356541;19;19918;-58
2023/07/03 05:17:38;;;;;;;;;;;;;;;13.57;56.28;100196.81;7355238;19;19915;-58
2023/07/03 05:20:08;;;;;;;;;;;;;;;13.57;57.43;100186.31;7357445;19;23389;-58
2023/07/03 05:22:35;;;;;;;;;;;;;;;13.57;56.83;100181.06;7355703;19;19946;-58
2023/07/03 05:25:01;;;;;;;;;;;;;;;13.48;57.10;100170.97;7355697;19;19963;-57
2023/07/03 05:27:26;;;;;;;;;;;;;;;13.55;56.99;100193.41;7356393;19;19915;-57
2023/07/03 05:29:51;;;;;;;;;;;;;;;13.56;56.80;100179.38;7356281;19;19951;-58
2023/07/03 05:32:16;;;;;;;;;;;;;;;13.55;57.69;100177.66;7353610;19;19933;-58
2023/07/03 05:34:42;;;;;;;;;;;;;;;13.54;57.28;100175.13;7356429;19;19958;-59
2023/07/03 05:37:08;;;;;;;;;;;;;;;13.54;58.02;100175.97;7355155;19;19926;-58
2023/07/03 05:39:33;;;;;;;;;;;;;;;13.54;57.61;100170.72;7357658;19;19930;-58
2023/07/03 05:41:58;;;;;;;;;;;;;;;13.54;57.42;100168.09;7355812;19;20555;-59
2023/07/03 05:44:24;;;;;;;;;;;;;;;13.53;57.25;100163.75;7356298;19;20943;-58
2023/07/03 05:46:49;;;;;;;;;;;;;;;13.53;57.74;100163.75;7351977;19;19933;-58
2023/07/03 05:49:15;;;;;;;;;;;;;;;13.53;57.98;100157.66;7357816;19;19961;-57
2023/07/03 05:51:40;;;;;;;;;;;;;;;13.53;57.95;100155.03;7354452;19;19919;-58
2023/07/03 05:54:05;;;;;;;;;;;;;;;13.51;57.72;100152.47;7356182;19;19923;-58
2023/07/03 05:56:30;;;;;;;;;;;;;;;13.50;58.88;100150.78;7354914;19;20741;-57
2023/07/03 05:58:56;;;;;;;;;;;;;;;13.49;58.42;100149.09;7351827;19;19924;-58
2023/07/03 06:01:21;;;;;;;;;;;;;;;13.49;58.09;100149.09;7353364;19;19927;-58
2023/07/03 06:03:47;;;;;;;;;;;;;;;13.47;59.12;100137.78;7354319;19;19915;-59
2023/07/03 06:06:13;;;;;;;;;;;;;;;13.47;58.11;100148.28;7353567;19;19937;-58
2023/07/03 06:08:39;;;;;;;;;;;;;;;13.47;58.95;100150.91;7360384;19;19955;-58
2023/07/03 06:11:04;;;;;;;;;;;;;;;13.45;58.45;100147.50;7361268;19;19922;-57
2023/07/03 06:13:29;;;;;;;;;;;;;;;13.44;58.76;100148.44;7360441;19;20901;-58
2023/07/03 06:15:56;;;;;;;;;;;;;;;13.44;59.79;100145.81;7360802;19;19962;-57
2023/07/03 06:18:21;;;;;;;;;;;;;;;13.44;59.96;100148.44;7357164;19;19932;-58
2023/07/03 06:20:47;;;;;;;;;;;;;;;13.44;59.48;100148.44;7361273;19;20463;-59
2023/07/03 06:23:12;;;;;;;;;;;;;;;13.46;60.26;100146.59;7356636;19;20344;-58
2023/07/03 06:25:38;;;;;;;;;;;;;;;13.49;60.10;100139.44;7359864;19;20332;-58
2023/07/03 06:28:03;;;;;;;;;;;;;;;13.51;60.32;100139.38;7360101;19;19927;-58
2023/07/03 06:30:28;;;;;;;;;;;;;;;13.54;59.77;100139.25;7357395;19;20968;-58
2023/07/03 06:32:53;;;;;;;;;;;;;;;13.56;59.74;100140.00;7361162;19;19922;-58
2023/07/03 06:35:19;;;;;;;;;;;;;;;13.57;59.73;100139.09;7357309;19;20711;-56
2023/07/03 06:37:44;;;;;;;;;;;;;;;13.59;60.18;100136.41;7360217;19;19927;-58
2023/07/03 06:40:10;;;;;;;;;;;;;;;13.60;60.38;100133.72;7357853;19;20022;-58
2023/07/03 06:42:38;;;;;;;;;;;;;;;13.63;59.82;100130.09;7360219;19;19922;-58
2023/07/03 06:45:04;;;;;;;;;;;;;;;13.64;60.28;100143.16;7359087;19;19982;-58
2023/07/03 06:47:30;;;;;;;;;;;;;;;13.66;60.61;100143.94;7360646;19;19970;-58
2023/07/03 06:49:55;;;;;;;;;;;;;;;13.68;60.15;100134.22;7357490;19;19925;-59
2023/07/03 06:52:20;;;;;;;;;;;;;;;13.71;60.01;100130.63;7360116;19;20595;-58
2023/07/03 06:54:46;;;;;;;;;;;;;;;13.75;60.52;100143.53;7358258;19;19923;-58
2023/07/03 06:57:11;;;;;;;;;;;;;;;13.77;60.70;100141.69;7360790;19;20243;-58
2023/07/03 06:59:37;;;;;;;;;;;;;;;13.81;60.77;100147.66;7357351;19;19948;-58
2023/07/03 07:02:03;;;;;;;;;;;;;;;13.84;61.21;100136.16;7358218;19;19923;-59
2023/07/03 07:04:29;;;;;;;;;;;;;;;13.89;60.18;100139.41;7358614;19;20443;-58
2023/07/03 07:06:55;;;;;;;;;;;;;;;13.93;60.28;100130.50;7359021;19;19914;-58
2023/07/03 07:09:21;;;;;;;;;;;;;;;13.98;60.60;100133.75;7357415;19;19933;-58
2023/07/03 07:11:47;;;;;;;;;;;;;;;14.04;61.32;100133.50;7358411;19;19993;-59
2023/07/03 07:14:12;;;;;;;;;;;;;;;14.09;60.97;100121.00;7358653;19;20015;-59
2023/07/03 07:16:37;;;;;;;;;;;;;;;14.16;60.66;100121.56;7358163;19;19919;-58
2023/07/03 07:19:04;;;;;;;;;;;;;;;14.24;60.99;100125.53;7356767;19;19950;-57
2023/07/03 07:21:31;;;;;;;;;;;;;;;14.31;61.26;100127.88;7358016;19;19922;-59
2023/07/03 07:23:58;;;;;;;;;;;;;;;14.38;60.70;100126.66;7358328;19;20559;-59
2023/07/03 07:26:24;;;;;;;;;;;;;;;14.44;61.37;100121.09;7359557;19;19930;-59
2023/07/03 07:28:49;;;;;;;;;;;;;;;14.50;60.93;100126.13;7357229;19;19930;-59
2023/07/03 07:31:21;;;;;;;;;;;;;;;14.56;60.83;100125.81;7359475;19;19930;-58
2023/07/03 07:33:47;;;;;;;;;;;;;;;14.64;61.24;100133.31;7358161;19;20352;-59
2023/07/03 07:36:13;;;;;;;;;;;;;;;14.68;61.77;100127.84;7358162;19;21654;-58
2023/07/03 07:38:39;;;;;;;;;;;;;;;14.76;61.12;100123.06;7357694;19;19926;-59
2023/07/03 07:41:04;;;;;;;;;;;;;;;14.85;61.58;100131.41;7358738;19;19929;-58
2023/07/03 07:43:29;;;;;;;;;;;;;;;14.93;61.16;100131.88;7356928;19;19990;-59
2023/07/03 07:45:55;;;;;;;;;;;;;;;15.00;60.67;100125.38;7359672;19;20616;-59
2023/07/03 07:48:20;;;;;;;;;;;;;;;14.86;60.99;100085.81;7357883;19;19921;-58
2023/07/03 07:50:46;;;;;;;;;;;;;;;15.15;60.84;100140.38;7357667;19;19919;-58
2023/07/03 07:53:11;;;;;;;;;;;;;;;15.22;60.61;100128.66;7357264;19;21059;-59
2023/07/03 07:55:37;;;;;;;;;;;;;;;15.28;60.43;100128.31;7357850;19;19923;-59
2023/07/03 07:58:02;;;;;;;;;;;;;;;15.32;61.25;100131.66;7354932;19;19934;-58
2023/07/03 08:00:27;;;;;;;;;;;;;;;15.39;61.08;100140.06;7358791;19;19933;-58
2023/07/03 08:02:53;;;;;;;;;;;;;;;15.44;61.05;100135.44;7354959;19;19923;-59
2023/07/03 08:05:18;;;;;;;;;;;;;;;15.50;60.49;100148.25;7356377;19;19937;-58
2023/07/03 08:07:44;;;;;;;;;;;;;;;15.55;60.47;100154.13;7357875;19;19934;-58
2023/07/03 08:10:10;;;;;;;;;;;;;;;15.60;60.96;100156.53;7358380;19;20676;-58
2023/07/03 08:12:35;;;;;;;;;;;;;;;15.63;60.41;100152.00;7353935;19;19922;-58
2023/07/03 08:15:01;;;;;;;;;;;;;;;15.67;60.30;100145.66;7356295;19;19926;-59
2023/07/03 08:17:26;;;;;;;;;;;;;;;15.72;60.05;100146.25;7351268;19;19918;-59
2023/07/03 08:19:51;;;;;;;;;;;;;;;15.76;60.56;100157.47;7358203;19;19939;-59
2023/07/03 08:22:16;;;;;;;;;;;;;;;15.79;60.11;100157.31;7356077;19;19915;-59
2023/07/03 08:24:42;;;;;;;;;;;;;;;15.82;60.69;100150.09;7353254;19;19938;-59
2023/07/03 08:27:07;;;;;;;;;;;;;;;15.89;60.90;100160.31;7356116;19;19914;-58
2023/07/03 08:29:32;;;;;;;;;;;;;;;15.96;61.07;100161.66;7355369;19;19927;-59
2023/07/03 08:31:57;;;;;;;;;;;;;;;16.03;60.96;100166.53;7357627;19;19937;-59
2023/07/03 08:34:23;;;;;;;;;;;;;;;16.10;61.04;100172.31;7357626;19;19919;-58
2023/07/03 08:36:48;;;;;;;;;;;;;;;16.16;60.48;100171.97;7354528;19;19926;-58
2023/07/03 08:39:13;;;;;;;;;;;;;;;16.21;60.99;100169.94;7357215;19;19917;-59
2023/07/03 08:41:44;;;;;;;;;;;;;;;16.25;61.37;100170.63;7356063;19;19918;-58
2023/07/03 08:44:10;;;;;;;;;;;;;;;16.05;60.95;100140.09;7357630;19;20273;-58
2023/07/03 08:46:36;;;;;;;;;;;;;;;16.32;60.89;100180.78;7354892;19;19964;-58
2023/07/03 08:49:04;;;;;;;;;;;;;;;16.34;60.37;100180.69;7357169;19;19922;-59
2023/07/03 08:51:30;;;;;;;;;;;;;;;16.35;60.45;100183.22;7352819;19;19982;-57
2023/07/03 08:53:59;;;;;;;;;;;;;;;16.36;60.53;100189.34;7356925;19;20388;-58
2023/07/03 08:56:28;;;;;;;;;;;;;;;16.36;61.04;100184.06;7354986;19;19935;-58
2023/07/03 08:58:55;;;;;;;;;;;;;;;16.39;60.72;100188.34;7356565;19;20773;-58
2023/07/03 09:01:38;;;;;;;;;;;;;;;16.43;60.91;100188.09;7356012;19;19939;-58
2023/07/03 09:04:04;;;;;;;;;;;;;;;16.50;60.70;100191.22;7356960;19;19915;-58
2023/07/03 09:06:42;;;;;;;;;;;;;;;16.54;61.02;100192.75;7355553;19;20984;-58
2023/07/03 09:09:19;;;;;;;;;;;;;;;16.60;60.66;100189.78;7355818;19;19998;-58
2023/07/03 09:11:50;;;;;;;;;;;;;;;16.65;61.13;100186.88;7356063;19;19922;-58
2023/07/03 09:14:22;;;;;;;;;;;;;;;16.70;61.33;100190.97;7353916;19;19922;-58
2023/07/03 09:16:48;;;;;;;;;;;;;;;16.76;61.32;100181.88;7354798;19;20330;-58
2023/07/03 09:19:20;;;;;;;;;;;;;;;16.82;61.08;100182.38;7356261;19;19938;-58
2023/07/03 09:21:47;;;;;;;;;;;;;;;16.89;61.40;100189.97;7355557;19;19947;-58
2023/07/03 09:24:18;;;;;;;;;;;;;;;16.97;61.09;100190.34;7355134;19;19974;-58
2023/07/03 09:26:46;;;;;;;;;;;;;;;17.03;61.66;100195.28;7355289;19;19943;-58
2023/07/03 09:29:11;;;;;;;;;;;;;;;17.12;61.69;100194.75;7356151;19;20564;-58
2023/07/03 09:31:37;;;;;;;;;;;;;;;17.20;61.48;100203.09;7355888;19;19974;-58
2023/07/03 09:34:02;;;;;;;;;;;;;;;17.26;61.35;100200.09;7355774;19;20378;-59
2023/07/03 09:36:27;;;;;;;;;;;;;;;17.32;61.35;100198.88;7353165;19;20701;-59
2023/07/03 09:38:53;;;;;;;;;;;;;;;17.35;61.30;100202.19;7356058;19;20623;-58
2023/07/03 09:41:25;;;;;;;;;;;;;;;17.36;61.22;100203.88;7352192;19;19975;-58
2023/07/03 09:43:51;;;;;;;;;;;;;;;17.44;61.35;100208.72;7355440;19;19924;-59
2023/07/03 09:46:16;;;;;;;;;;;;;;;17.54;61.37;100201.13;7354077;19;19927;-58
2023/07/03 09:48:42;;;;;;;;;;;;;;;17.67;61.95;100196.78;7354351;19;19914;-59
2023/07/03 09:51:22;;;;;;;;;;;;;;;17.86;61.99;100202.69;7355041;19;20441;-59
2023/07/03 09:53:47;;;;;;;;;;;;;;;18.12;62.63;100197.59;7355453;19;19943;-58
2023/07/03 09:56:14;;;;;;;;;;;;;;;18.28;62.17;100198.34;7355533;19;22608;-58
2023/07/03 09:58:43;;;;;;;;;;;;;;;18.41;61.56;100201.91;7354630;19;19940;-58
2023/07/03 10:01:15;;;;;;;;;;;;;;;18.53;61.50;100196.78;7354462;19;19923;-59
2023/07/03 10:03:40;;;;;;;;;;;;;;;18.66;61.70;100195.91;7352206;19;19947;-59
2023/07/03 10:06:13;;;;;;;;;;;;;;;18.80;61.38;100194.19;7355251;19;19915;-58
2023/07/03 10:08:44;;;;;;;;;;;;;;;18.95;61.58;100192.34;7352945;19;21843;-58
2023/07/03 10:11:10;;;;;;;;;;;;;;;19.12;61.38;100205.34;7352606;19;19932;-58
2023/07/03 10:13:37;;;;;;;;;;;;;;;19.28;61.64;100198.06;7355186;19;20079;-57
2023/07/03 10:16:04;;;;;;;;;;;;;;;19.47;61.67;100204.78;7353330;19;19923;-58
2023/07/03 10:18:31;;;;;;;;;;;;;;;19.67;61.56;100197.19;7346888;19;20505;-58
2023/07/03 10:21:01;;;;;;;;;;;;;;;19.84;61.10;100190.72;7354646;19;20726;-58
2023/07/03 10:23:29;;;;;;;;;;;;;;;19.95;60.62;100201.44;7352980;19;19911;-59
2023/07/03 10:26:05;;;;;;;;;;;;;;;20.07;60.48;100206.81;7355134;19;20632;-59
2023/07/03 10:28:43;;;;;;;;;;;;;;;20.22;60.34;100195.13;7354243;19;19944;-59
2023/07/03 10:31:20;;;;;;;;;;;;;;;20.50;60.93;100206.47;7355780;19;19922;-58
2023/07/03 10:33:46;;;;;;;;;;;;;;;20.76;60.60;100194.81;7354272;19;20461;-59
2023/07/03 10:36:16;;;;;;;;;;;;;;;21.09;60.40;100198.59;7354607;19;19930;-58
2023/07/03 10:38:47;;;;;;;;;;;;;;;21.42;60.30;100209.38;7353048;19;19926;-58
2023/07/03 10:41:13;;;;;;;;;;;;;;;21.81;59.90;100191.34;7353403;19;19918;-59
2023/07/03 10:43:42;;;;;;;;;;;;;;;22.17;58.75;100197.44;7353654;19;19950;-58
2023/07/03 10:46:12;;;;;;;;;;;;;;;22.42;57.62;100186.53;7354263;19;19931;-59
2023/07/03 10:48:37;;;;;;;;;;;;;;;22.67;56.96;100192.53;7354750;19;20341;-59
2023/07/03 10:51:03;;;;;;;;;;;;;;;22.91;57.22;100198.56;7352036;19;19930;-59
2023/07/03 10:53:37;;;;;;;;;;;;;;;23.19;56.95;100201.59;7356818;19;20889;-58
2023/07/03 10:56:24;;;;;;;;;;;;;;;23.46;56.28;100188.59;7357141;19;19938;-59
2023/07/03 10:58:58;;;;;;;;;;;;;;;23.77;56.15;100196.66;7361745;19;19966;-58
2023/07/03 11:01:25;;;;;;;;;;;;;;;24.05;56.00;100195.16;7358979;19;20737;-58
2023/07/03 11:03:51;;;;;;;;;;;;;;;24.39;54.91;100193.06;7362583;19;19964;-59
2023/07/03 11:06:22;;;;;;;;;;;;;;;24.69;55.04;100194.81;7358951;19;19923;-58
2023/07/03 11:08:55;;;;;;;;;;;;;;;25.07;54.98;100204.72;7360718;19;20331;-59
2023/07/03 11:11:40;;;;;;;;;;;;;;;25.49;54.53;100188.38;7359800;19;19919;-59
2023/07/03 11:14:25;;;;;;;;;;;;;;;25.94;53.59;100189.56;7360318;19;19994;-59
2023/07/03 11:16:54;;;;;;;;;;;;;;;26.33;52.81;100190.25;7359411;19;21029;-59
2023/07/03 11:19:29;;;;;;;;;;;;;;;26.70;50.56;100194.72;7360325;19;19931;-59
2023/07/03 11:21:54;;;;;;;;;;;;;;;26.84;49.84;100207.59;7359809;19;19923;-59
2023/07/03 11:24:29;;;;;;;;;;;;;;;26.86;49.31;100202.91;7358167;19;21224;-58
2023/07/03 11:27:03;;;;;;;;;;;;;;;26.78;48.12;100208.19;7359666;19;20398;-58
2023/07/03 11:29:29;;;;;;;;;;;;;;;26.62;47.83;100195.47;7360246;19;19922;-59
2023/07/03 11:31:55;;;;;;;;;;;;;;;26.42;47.48;100202.78;7352558;19;21031;-59
2023/07/03 11:34:21;;;;;;;;;;;;;;;26.22;47.21;100204.66;7357755;19;19922;-59
2023/07/03 11:36:48;;;;;;;;;;;;;;;26.09;47.66;100196.13;7357598;19;22251;-58
2023/07/03 11:39:29;;;;;;;;;;;;;;;26.10;48.81;100201.34;7356986;19;19915;-59
2023/07/03 11:42:09;;;;;;;;;;;;;;;26.34;49.30;100191.94;7357084;19;20478;-58
2023/07/03 11:44:47;;;;;;;;;;;;;;;26.65;48.94;100197.84;7360197;19;19919;-59
2023/07/03 11:47:12;;;;;;;;;;;;;;;27.07;49.59;100198.16;7359272;19;20259;-58
2023/07/03 11:49:42;;;;;;;;;;;;;;;27.42;47.90;100194.59;7359393;19;22882;-58
2023/07/03 11:52:11;;;;;;;;;;;;;;;27.76;46.80;100198.38;7358547;19;19942;-59
2023/07/03 11:54:36;;;;;;;;;;;;;;;28.03;46.76;100187.47;7359281;19;19927;-58
2023/07/03 11:57:04;;;;;;;;;;;;;;;28.28;45.86;100203.66;7358918;19;20259;-58
2023/07/03 11:59:31;;;;;;;;;;;;;;;28.44;45.13;100209.16;7356640;19;19918;-59
2023/07/03 12:02:11;;;;;;;;;;;;;;;28.45;44.54;100216.22;7359210;19;19971;-59
2023/07/03 12:04:42;;;;;;;;;;;;;;;28.39;44.32;100214.19;7356654;19;20453;-59
2023/07/03 12:07:28;;;;;;;;;;;;;;;28.29;44.26;100216.13;7359613;19;20332;-59
2023/07/03 12:10:13;;;;;;;;;;;;;;;28.10;44.29;100218.03;7358772;19;20587;-59
2023/07/03 12:12:38;;;;;;;;;;;;;;;27.88;43.66;100213.22;7357511;19;20082;-59
2023/07/03 12:15:11;;;;;;;;;;;;;;;27.66;44.21;100214.53;7358966;19;20069;-59
2023/07/03 12:17:37;;;;;;;;;;;;;;;27.40;44.23;100225.22;7357914;19;19922;-58
2023/07/03 12:20:21;;;;;;;;;;;;;;;27.16;44.03;100218.66;7358298;19;19922;-59
2023/07/03 12:22:47;;;;;;;;;;;;;;;26.96;44.31;100211.72;7360150;19;20850;-59
2023/07/03 12:25:13;;;;;;;;;;;;;;;26.94;44.90;100211.03;7355027;19;19934;-58
2023/07/03 12:27:39;;;;;;;;;;;;;;;27.02;45.44;100205.78;7360465;19;19923;-58
2023/07/03 12:30:25;;;;;;;;;;;;;;;27.21;45.92;100209.31;7357002;19;19934;-59
2023/07/03 12:32:51;;;;;;;;;;;;;;;27.57;46.21;100215.47;7355367;19;20812;-59
2023/07/03 12:35:18;;;;;;;;;;;;;;;27.90;45.84;100205.84;7357597;19;19946;-58